Time;durP1;ratioP1;P1;durP2;ratioP2;P2;SDS_P1;SDS_P2;PMS_P1;PMS_P2;Temp;Humidity;BMP_temperature;BMP_pressure;BME280_temperature;BME280_humidity;BME280_pressure;Samples;Min_cycle;Max_cycle;Signal;HPM_P1;HPM_P2
2022/07/24 00:02:15;;;;;;;8.40;6.40;;;16.00;99.90;;;;;;4878090;28;20051;-86
2022/07/24 00:04:47;;;;;;;7.50;5.45;;;16.00;99.90;;;;;;4865130;29;20158;-86
2022/07/24 00:07:13;;;;;;;7.55;6.68;;;15.90;99.90;;;;;;4890286;28;20134;-86
2022/07/24 00:09:39;;;;;;;8.90;6.65;;;15.90;99.90;;;;;;4876105;29;20059;-86
2022/07/24 00:12:05;;;;;;;8.50;6.65;;;15.90;99.90;;;;;;4894954;29;20126;-85
2022/07/24 00:14:34;;;;;;;7.50;6.68;;;15.90;99.90;;;;;;4879829;28;20135;-86
2022/07/24 00:17:00;;;;;;;8.25;6.72;;;15.90;99.90;;;;;;4857471;29;20146;-86
2022/07/24 00:19:26;;;;;;;10.18;6.70;;;15.80;99.90;;;;;;4874388;28;20059;-85
2022/07/24 00:21:52;;;;;;;7.45;6.75;;;15.90;99.90;;;;;;4892976;28;20051;-85
2022/07/24 00:24:18;;;;;;;8.27;7.38;;;15.90;99.90;;;;;;4866393;28;20514;-86
2022/07/24 00:26:45;;;;;;;9.82;7.45;;;15.90;99.90;;;;;;4915862;28;20047;-86
2022/07/24 00:29:11;;;;;;;8.35;7.55;;;15.90;99.90;;;;;;4863404;28;20039;-85
2022/07/24 00:31:37;;;;;;;8.10;7.30;;;15.80;99.90;;;;;;4873958;29;20086;-86
2022/07/24 00:34:03;;;;;;;8.80;7.50;;;15.90;99.90;;;;;;4879504;28;20780;-86
2022/07/24 00:36:29;;;;;;;8.15;7.35;;;15.80;99.90;;;;;;4893098;28;20086;-85
2022/07/24 00:38:55;;;;;;;7.85;6.55;;;15.80;99.90;;;;;;4856501;28;20043;-85
2022/07/24 00:41:22;;;;;;;7.95;7.10;;;15.80;99.90;;;;;;4896851;29;20105;-85
2022/07/24 00:44:06;;;;;;;7.28;6.57;;;15.70;99.90;;;;;;4863862;29;20039;-86
2022/07/24 00:46:33;;;;;;;9.07;8.05;;;15.70;99.90;;;;;;4920345;29;20063;-86
2022/07/24 00:48:59;;;;;;;8.77;7.00;;;15.70;99.90;;;;;;4864530;29;20055;-85
2022/07/24 00:51:25;;;;;;;8.23;7.03;;;15.70;99.90;;;;;;4864852;28;20050;-86
2022/07/24 00:53:51;;;;;;;9.20;8.30;;;15.60;99.90;;;;;;4896080;28;20093;-86
2022/07/24 00:56:18;;;;;;;8.90;8.10;;;15.60;99.90;;;;;;4907850;28;20047;-86
2022/07/24 00:58:46;;;;;;;10.13;7.88;;;15.60;99.90;;;;;;4875644;28;20644;-84
2022/07/24 01:01:12;;;;;;;10.18;8.27;;;15.50;99.90;;;;;;4924703;29;20066;-86
2022/07/24 01:03:38;;;;;;;10.45;8.02;;;15.50;99.90;;;;;;4877752;28;20043;-86
2022/07/24 01:06:06;;;;;;;9.27;8.38;;;15.50;99.90;;;;;;4875728;29;20733;-87
2022/07/24 01:08:34;;;;;;;9.65;8.75;;;15.50;99.90;;;;;;4879564;29;20498;-87
2022/07/24 01:11:04;;;;;;;8.90;8.07;;;15.50;99.90;;;;;;4874890;29;20453;-85
2022/07/24 01:13:39;;;;;;;9.45;8.35;;;15.50;99.90;;;;;;4895003;29;20055;-87
2022/07/24 01:16:07;;;;;;;8.90;8.10;;;15.40;99.90;;;;;;4879653;28;20053;-86
2022/07/24 01:18:36;;;;;;;9.43;8.20;;;15.40;99.90;;;;;;4942944;28;20582;-86
2022/07/24 01:21:06;;;;;;;10.93;9.80;;;15.40;99.90;;;;;;4909630;28;20082;-86
2022/07/24 01:23:32;;;;;;;9.68;8.68;;;15.40;99.90;;;;;;4927091;29;20495;-88
2022/07/24 01:26:01;;;;;;;9.13;8.30;;;15.30;99.90;;;;;;4879181;28;20628;-87
2022/07/24 01:28:27;;;;;;;9.57;8.70;;;15.30;99.90;;;;;;4925292;29;20094;-85
2022/07/24 01:30:54;;;;;;;10.45;9.32;;;15.30;99.90;;;;;;4901288;28;20077;-86
2022/07/24 01:33:20;;;;;;;10.35;8.95;;;15.30;99.90;;;;;;4929558;28;20067;-87
2022/07/24 01:35:46;;;;;;;10.05;9.05;;;15.30;99.90;;;;;;4920967;28;20640;-84
2022/07/24 01:38:13;;;;;;;9.60;8.65;;;15.30;99.90;;;;;;4904777;28;20054;-85
2022/07/24 01:40:39;;;;;;;9.32;8.50;;;15.30;99.90;;;;;;4915487;29;20079;-88
2022/07/24 01:43:06;;;;;;;11.82;9.40;;;15.30;99.90;;;;;;4899237;29;20069;-87
2022/07/24 01:45:32;;;;;;;10.52;9.52;;;15.20;99.90;;;;;;4926182;28;20043;-87
2022/07/24 01:47:58;;;;;;;10.88;9.23;;;15.20;99.90;;;;;;4928566;29;20130;-86
2022/07/24 01:50:25;;;;;;;9.90;8.90;;;15.20;99.90;;;;;;4893804;29;20043;-85
2022/07/24 01:52:53;;;;;;;10.70;9.70;;;15.20;99.90;;;;;;4914973;29;20134;-87
2022/07/24 01:55:20;;;;;;;10.68;9.57;;;15.20;99.90;;;;;;4872001;28;20082;-86
2022/07/24 01:57:47;;;;;;;11.15;10.05;;;15.10;99.90;;;;;;4876851;28;20086;-86
2022/07/24 02:00:14;;;;;;;11.80;10.20;;;15.10;99.90;;;;;;4912524;28;20090;-87
2022/07/24 02:02:42;;;;;;;10.52;9.55;;;15.00;99.90;;;;;;4882530;28;20047;-86
2022/07/24 02:05:09;;;;;;;11.98;10.18;;;15.10;99.90;;;;;;4893573;29;20040;-87
2022/07/24 02:07:45;;;;;;;11.32;10.23;;;15.10;99.90;;;;;;4913070;28;20126;-87
2022/07/24 02:10:13;;;;;;;10.55;9.55;;;15.10;99.90;;;;;;4902766;29;20893;-86
2022/07/24 02:12:39;;;;;;;11.07;10.07;;;15.10;99.90;;;;;;4926302;28;20051;-84
2022/07/24 02:15:05;;;;;;;11.07;9.98;;;15.00;99.90;;;;;;4896605;28;20605;-85
2022/07/24 02:17:32;;;;;;;10.90;9.90;;;15.00;99.90;;;;;;4865200;28;20051;-85
2022/07/24 02:19:58;;;;;;;10.57;9.57;;;15.00;99.90;;;;;;4863947;29;20673;-86
2022/07/24 02:22:24;;;;;;;12.13;10.90;;;15.00;99.90;;;;;;4894399;28;20524;-86
2022/07/24 02:24:50;;;;;;;11.20;9.50;;;15.00;99.90;;;;;;4862690;28;20525;-85
2022/07/24 02:27:16;;;;;;;11.30;10.18;;;15.00;99.90;;;;;;4863321;28;20043;-85
2022/07/24 02:29:42;;;;;;;10.93;9.70;;;14.90;99.90;;;;;;4889695;29;20371;-85
2022/07/24 02:32:08;;;;;;;10.57;9.48;;;14.90;99.90;;;;;;4876197;28;20052;-86
2022/07/24 02:34:34;;;;;;;11.85;10.68;;;14.80;99.90;;;;;;4891799;29;20055;-86
2022/07/24 02:37:00;;;;;;;11.95;10.10;;;14.90;99.90;;;;;;4907962;29;20522;-85
2022/07/24 02:39:26;;;;;;;11.43;10.00;;;14.90;99.90;;;;;;4904579;28;20379;-85
2022/07/24 02:41:53;;;;;;;11.38;10.27;;;14.90;99.90;;;;;;4904527;28;20126;-86
2022/07/24 02:44:19;;;;;;;11.20;10.20;;;14.90;99.90;;;;;;4894088;28;20571;-86
2022/07/24 02:46:45;;;;;;;11.48;10.38;;;14.90;99.90;;;;;;4892315;28;20039;-86
2022/07/24 02:49:11;;;;;;;11.82;10.45;;;14.90;99.90;;;;;;4888795;28;20055;-86
2022/07/24 02:51:38;;;;;;;11.52;10.32;;;14.90;99.90;;;;;;4879815;28;20086;-85
2022/07/24 02:54:04;;;;;;;12.20;10.30;;;14.90;99.90;;;;;;4877938;29;20732;-85
2022/07/24 02:56:30;;;;;;;11.57;10.48;;;14.90;99.90;;;;;;4881186;28;20661;-85
2022/07/24 02:58:56;;;;;;;10.95;9.80;;;14.90;99.90;;;;;;4891661;29;20054;-85
2022/07/24 03:01:22;;;;;;;14.40;10.95;;;14.90;99.90;;;;;;4860619;28;20081;-86
2022/07/24 03:03:48;;;;;;;11.63;10.50;;;14.90;99.90;;;;;;4888971;29;20055;-85
2022/07/24 03:06:23;;;;;;;11.15;9.98;;;14.90;99.90;;;;;;4894058;29;20051;-85
2022/07/24 03:08:49;;;;;;;11.70;10.60;;;14.90;99.90;;;;;;4873983;29;20631;-85
2022/07/24 03:11:16;;;;;;;13.65;11.63;;;14.90;99.90;;;;;;4878458;28;20550;-86
2022/07/24 03:13:42;;;;;;;11.05;9.95;;;14.90;99.90;;;;;;4893816;28;20549;-86
2022/07/24 03:16:08;;;;;;;11.75;10.65;;;14.90;99.90;;;;;;4867842;28;20086;-86
2022/07/24 03:18:34;;;;;;;13.00;11.45;;;14.80;99.90;;;;;;4878990;29;20051;-86
2022/07/24 03:21:00;;;;;;;14.45;10.85;;;14.80;99.90;;;;;;4891755;29;20431;-86
2022/07/24 03:23:26;;;;;;;11.60;10.32;;;14.80;99.90;;;;;;4875761;29;20550;-85
2022/07/24 03:25:54;;;;;;;12.32;10.45;;;14.80;99.90;;;;;;4892476;29;20499;-86
2022/07/24 03:28:20;;;;;;;13.80;10.52;;;14.80;99.90;;;;;;4910519;28;20150;-86
2022/07/24 03:30:46;;;;;;;12.45;10.75;;;14.80;99.90;;;;;;4910354;29;20350;-86
2022/07/24 03:33:12;;;;;;;16.13;11.38;;;14.80;99.90;;;;;;4906951;28;20593;-85
2022/07/24 03:35:38;;;;;;;12.52;11.43;;;14.80;99.90;;;;;;4892346;29;20055;-85
2022/07/24 03:38:04;;;;;;;11.73;10.45;;;14.90;99.90;;;;;;4877522;29;20568;-86
2022/07/24 03:40:30;;;;;;;12.50;10.57;;;14.90;99.90;;;;;;4858921;29;20146;-87
2022/07/24 03:42:56;;;;;;;11.75;10.63;;;14.90;99.90;;;;;;4860190;28;20050;-85
2022/07/24 03:45:22;;;;;;;13.43;11.00;;;14.90;99.90;;;;;;4923272;29;20130;-86
2022/07/24 03:47:48;;;;;;;11.32;10.23;;;14.80;99.90;;;;;;4893980;29;20847;-85
2022/07/24 03:50:15;;;;;;;11.77;10.57;;;14.80;99.90;;;;;;4862902;28;20047;-85
2022/07/24 03:52:41;;;;;;;10.68;9.68;;;14.80;99.90;;;;;;4877339;29;20142;-85
2022/07/24 03:55:08;;;;;;;11.25;10.25;;;14.90;99.90;;;;;;4888008;28;20862;-85
2022/07/24 03:57:34;;;;;;;14.02;10.23;;;14.90;99.90;;;;;;4864064;29;20054;-83
2022/07/24 04:00:00;;;;;;;11.30;9.80;;;14.90;99.90;;;;;;4914284;29;20099;-85
2022/07/24 04:02:26;;;;;;;13.18;9.55;;;14.90;99.90;;;;;;4877613;29;20043;-86
2022/07/24 04:04:52;;;;;;;10.93;9.82;;;14.90;99.90;;;;;;4910214;29;20047;-86
2022/07/24 04:07:18;;;;;;;12.48;8.75;;;15.00;99.90;;;;;;4862828;28;20122;-85
2022/07/24 04:09:45;;;;;;;11.05;9.98;;;15.00;99.90;;;;;;4880725;29;20055;-85
2022/07/24 04:12:11;;;;;;;10.80;9.80;;;15.00;99.90;;;;;;4864054;29;20134;-87
2022/07/24 04:14:37;;;;;;;11.77;9.75;;;15.00;99.90;;;;;;4881145;28;20079;-85
2022/07/24 04:17:03;;;;;;;11.85;10.40;;;15.00;99.90;;;;;;4909875;29;20423;-86
2022/07/24 04:19:29;;;;;;;10.60;9.50;;;15.10;99.90;;;;;;4908960;29;20039;-85
2022/07/24 04:21:55;;;;;;;11.02;9.43;;;15.10;99.90;;;;;;4909941;29;20051;-86
2022/07/24 04:24:22;;;;;;;10.82;9.77;;;15.10;99.90;;;;;;4863353;28;20641;-85
2022/07/24 04:26:48;;;;;;;11.00;9.82;;;15.10;99.90;;;;;;4884717;29;20590;-85
2022/07/24 04:29:15;;;;;;;9.88;8.98;;;15.00;99.90;;;;;;4895864;29;20046;-85
2022/07/24 04:31:41;;;;;;;11.35;9.43;;;15.20;99.90;;;;;;4898010;28;21426;-86
2022/07/24 04:34:07;;;;;;;10.88;9.88;;;15.20;99.90;;;;;;4885257;29;20043;-86
2022/07/24 04:36:34;;;;;;;10.40;9.40;;;15.20;99.90;;;;;;4882529;28;20393;-85
2022/07/24 04:39:00;;;;;;;11.63;9.90;;;15.20;99.90;;;;;;4897118;29;20046;-86
2022/07/24 04:41:26;;;;;;;10.55;9.50;;;15.10;99.90;;;;;;4897994;28;20035;-86
2022/07/24 04:43:52;;;;;;;10.05;8.98;;;15.20;99.90;;;;;;4875848;28;20071;-87
2022/07/24 04:46:18;;;;;;;9.90;8.90;;;15.20;99.90;;;;;;4880095;29;20066;-87
2022/07/24 04:48:45;;;;;;;10.45;9.45;;;15.30;99.90;;;;;;4924161;29;20593;-86
2022/07/24 04:51:11;;;;;;;11.27;9.93;;;15.20;99.90;;;;;;4893530;29;20507;-87
2022/07/24 04:53:37;;;;;;;10.32;9.32;;;15.30;99.90;;;;;;4896822;29;20082;-86
2022/07/24 04:56:03;;;;;;;12.02;9.77;;;15.40;99.90;;;;;;4889018;28;20043;-86
2022/07/24 04:58:30;;;;;;;10.65;9.45;;;15.40;99.90;;;;;;4884451;28;20055;-86
2022/07/24 05:00:56;;;;;;;9.88;8.85;;;15.40;99.90;;;;;;4893601;29;20570;-86
2022/07/24 05:03:22;;;;;;;11.55;8.90;;;15.50;99.90;;;;;;4875967;28;20515;-86
2022/07/24 05:05:48;;;;;;;10.23;8.75;;;15.60;99.90;;;;;;4877030;29;20043;-86
2022/07/24 05:08:15;;;;;;;9.80;8.80;;;15.70;99.90;;;;;;4897089;28;20059;-86
2022/07/24 05:10:41;;;;;;;10.52;9.05;;;15.80;99.90;;;;;;4894460;29;20047;-86
2022/07/24 05:13:07;;;;;;;10.13;9.13;;;15.90;99.90;;;;;;4878721;29;20143;-86
2022/07/24 05:15:33;;;;;;;9.57;8.32;;;16.10;99.90;;;;;;4878365;29;20051;-86
2022/07/24 05:17:59;;;;;;;10.95;8.75;;;16.20;99.90;;;;;;4879796;29;20090;-86
2022/07/24 05:20:26;;;;;;;11.35;9.23;;;16.30;99.90;;;;;;4891670;28;20066;-85
2022/07/24 05:22:52;;;;;;;8.75;7.80;;;16.50;99.90;;;;;;4894350;29;20043;-86
2022/07/24 05:25:19;;;;;;;10.50;8.63;;;16.70;99.90;;;;;;4878639;28;20512;-85
2022/07/24 05:27:45;;;;;;;9.25;7.85;;;16.90;99.90;;;;;;4912435;29;20051;-85
2022/07/24 05:30:11;;;;;;;8.80;7.78;;;17.20;99.90;;;;;;4911820;29;20122;-86
2022/07/24 05:32:38;;;;;;;8.15;7.45;;;17.50;99.90;;;;;;4896077;28;20693;-86
2022/07/24 05:35:05;;;;;;;8.90;7.50;;;17.80;99.90;;;;;;4878313;29;20504;-86
2022/07/24 05:37:31;;;;;;;8.00;7.20;;;18.10;99.90;;;;;;4877601;28;20057;-86
2022/07/24 05:39:57;;;;;;;8.50;6.95;;;18.50;99.90;;;;;;4910002;29;20059;-85
2022/07/24 05:42:23;;;;;;;7.55;6.75;;;18.70;99.90;;;;;;4891586;29;20590;-85
2022/07/24 05:44:49;;;;;;;9.05;7.80;;;18.80;99.90;;;;;;4891311;29;20043;-86
2022/07/24 05:47:15;;;;;;;8.20;7.28;;;18.80;99.90;;;;;;4897067;29;20062;-85
2022/07/24 05:49:56;;;;;;;8.23;7.50;;;18.70;99.90;;;;;;4882920;28;20051;-84
2022/07/24 05:52:23;;;;;;;;;;;18.70;99.90;;;;;;4915804;29;20082;-85
2022/07/24 05:54:52;;;;;;;9.57;8.60;;;18.70;99.90;;;;;;4913618;28;20053;-85
2022/07/24 05:57:18;;;;;;;9.25;8.35;;;18.70;99.90;;;;;;4900017;28;20051;-85
2022/07/24 05:59:44;;;;;;;10.55;9.55;;;18.80;99.90;;;;;;4911104;28;20043;-87
2022/07/24 06:02:11;;;;;;;9.75;8.75;;;18.90;99.90;;;;;;4886247;28;20051;-84
2022/07/24 06:04:41;;;;;;;10.43;8.20;;;18.90;99.90;;;;;;4909504;28;20043;-84
2022/07/24 06:07:09;;;;;;;12.50;10.05;;;19.00;99.90;;;;;;4923004;28;20092;-85
2022/07/24 06:09:38;;;;;;;11.00;9.88;;;19.00;99.90;;;;;;4891164;28;20058;-84
2022/07/24 06:12:05;;;;;;;12.10;9.45;;;19.10;99.90;;;;;;4933185;29;20058;-84
2022/07/24 06:14:32;;;;;;;11.27;9.68;;;19.10;99.90;;;;;;4928612;28;20055;-84
2022/07/24 06:16:59;;;;;;;10.88;9.82;;;19.40;99.90;;;;;;4874745;28;20043;-85
2022/07/24 06:19:25;;;;;;;10.75;9.75;;;19.70;99.90;;;;;;4890375;28;20047;-86
2022/07/24 06:21:51;;;;;;;10.88;9.82;;;20.00;99.90;;;;;;4892985;29;20466;-84
2022/07/24 06:24:17;;;;;;;11.80;9.60;;;20.20;99.90;;;;;;4893403;28;20054;-86
2022/07/24 06:26:44;;;;;;;10.60;9.60;;;20.40;99.90;;;;;;4865117;28;20050;-85
2022/07/24 06:29:10;;;;;;;11.63;10.43;;;20.70;99.90;;;;;;4892364;28;20582;-85
2022/07/24 06:31:36;;;;;;;11.80;10.00;;;20.70;99.90;;;;;;4895766;29;20051;-80
2022/07/24 06:34:02;;;;;;;11.68;10.48;;;20.80;99.90;;;;;;4878082;28;20050;-84
2022/07/24 06:36:29;;;;;;;13.25;11.45;;;20.90;99.90;;;;;;4878229;29;20079;-84
2022/07/24 06:38:55;;;;;;;13.02;11.73;;;20.80;99.90;;;;;;4894608;29;20075;-84
2022/07/24 06:41:21;;;;;;;12.75;11.43;;;20.90;99.90;;;;;;4861191;29;20126;-85
2022/07/24 06:43:47;;;;;;;13.55;12.20;;;21.00;99.90;;;;;;4877552;29;20097;-84
2022/07/24 06:46:13;;;;;;;13.55;12.18;;;21.10;99.90;;;;;;4874205;28;20712;-84
2022/07/24 06:48:40;;;;;;;14.05;12.70;;;21.00;99.90;;;;;;4893014;29;20054;-85
2022/07/24 06:51:06;;;;;;;14.05;12.65;;;21.00;99.90;;;;;;4859259;28;20043;-85
2022/07/24 06:53:32;;;;;;;15.02;12.57;;;21.20;99.90;;;;;;4876089;28;20057;-84
2022/07/24 06:55:58;;;;;;;15.23;12.77;;;21.20;99.90;;;;;;4888240;28;20078;-84
2022/07/24 06:58:27;;;;;;;15.32;13.57;;;21.40;99.90;;;;;;4894875;28;20051;-85
2022/07/24 07:00:53;;;;;;;13.93;12.57;;;21.70;99.90;;;;;;4907018;29;20089;-85
2022/07/24 07:03:19;;;;;;;13.77;12.48;;;21.90;99.90;;;;;;4876544;28;20098;-85
2022/07/24 07:05:45;;;;;;;15.27;13.82;;;22.00;99.90;;;;;;4894097;29;20047;-85
2022/07/24 07:08:11;;;;;;;14.30;13.00;;;22.10;99.90;;;;;;4859287;28;20451;-85
2022/07/24 07:10:37;;;;;;;14.40;13.10;;;22.40;99.90;;;;;;4861822;29;20131;-85
2022/07/24 07:13:03;;;;;;;13.38;12.18;;;22.80;99.90;;;;;;4865371;29;20055;-85
2022/07/24 07:15:30;;;;;;;14.55;13.15;;;22.80;99.90;;;;;;4878295;29;20106;-85
2022/07/24 07:17:56;;;;;;;15.80;14.30;;;22.90;99.90;;;;;;4909645;29;20047;-84
2022/07/24 07:20:22;;;;;;;14.80;13.40;;;22.90;99.90;;;;;;4865464;28;20135;-82
2022/07/24 07:22:48;;;;;;;14.93;13.48;;;23.00;99.90;;;;;;4861002;28;20039;-86
2022/07/24 07:25:18;;;;;;;16.92;14.95;;;23.10;99.90;;;;;;4937786;28;20082;-85
2022/07/24 07:27:44;;;;;;;14.57;13.18;;;23.00;99.90;;;;;;4879931;29;20079;-85
2022/07/24 07:30:12;;;;;;;14.32;13.02;;;23.50;99.90;;;;;;4879589;28;20050;-84
2022/07/24 07:32:39;;;;;;;17.08;14.10;;;23.70;99.90;;;;;;4895896;28;20105;-84
2022/07/24 07:35:05;;;;;;;15.02;13.63;;;23.90;99.90;;;;;;4896436;29;20047;-85
2022/07/24 07:37:32;;;;;;;14.30;12.85;;;24.00;99.90;;;;;;4893819;28;20047;-84
2022/07/24 07:39:58;;;;;;;14.30;12.90;;;24.30;99.90;;;;;;4880893;29;20046;-86
2022/07/24 07:42:24;;;;;;;14.10;12.73;;;24.50;99.90;;;;;;4910231;29;20051;-86
2022/07/24 07:44:50;;;;;;;14.43;13.02;;;24.60;99.90;;;;;;4897998;29;20667;-84
2022/07/24 07:47:16;;;;;;;13.85;12.30;;;24.70;99.90;;;;;;4867607;29;20106;-85
2022/07/24 07:49:43;;;;;;;14.68;13.15;;;25.00;99.90;;;;;;4909474;28;20051;-81
2022/07/24 07:52:09;;;;;;;13.30;11.82;;;24.90;99.90;;;;;;4879445;28;20134;-87
2022/07/24 07:54:36;;;;;;;13.50;11.40;;;25.20;99.90;;;;;;4901172;29;20062;-86
2022/07/24 07:57:05;;;;;;;13.23;11.93;;;25.60;99.90;;;;;;4889002;29;20063;-87
2022/07/24 07:59:35;;;;;;;12.65;11.45;;;25.80;99.90;;;;;;4933559;29;20046;-86
2022/07/24 08:02:01;;;;;;;13.23;11.82;;;25.90;99.90;;;;;;4951279;28;20094;-87
2022/07/24 08:04:27;;;;;;;13.43;11.02;;;26.10;99.90;;;;;;4871783;29;20523;-87
2022/07/24 08:06:54;;;;;;;11.80;8.52;;;26.10;99.90;;;;;;4914473;28;20493;-86
2022/07/24 08:09:23;;;;;;;9.98;8.05;;;26.20;99.90;;;;;;4883586;29;20144;-86
2022/07/24 08:11:49;;;;;;;7.95;5.85;;;26.40;99.90;;;;;;4904533;29;20054;-86
2022/07/24 08:14:16;;;;;;;9.05;6.32;;;26.40;99.90;;;;;;4918308;29;20385;-85
2022/07/24 08:16:42;;;;;;;6.68;6.00;;;26.20;99.90;;;;;;4917473;29;20466;-87
2022/07/24 08:19:08;;;;;;;8.85;5.07;;;26.10;99.90;;;;;;4880363;29;20093;-87
2022/07/24 08:21:34;;;;;;;5.20;4.50;;;26.20;99.60;;;;;;4900344;28;20078;-85
2022/07/24 08:24:03;;;;;;;8.45;5.30;;;26.30;98.70;;;;;;4895350;29;20048;-86
2022/07/24 08:26:30;;;;;;;10.32;9.32;;;26.30;97.30;;;;;;4889360;29;21119;-85
2022/07/24 08:28:58;;;;;;;7.82;4.22;;;26.60;98.60;;;;;;4864425;28;20054;-87
2022/07/24 08:31:28;;;;;;;6.30;4.35;;;26.90;95.40;;;;;;4903379;29;20122;-86
2022/07/24 08:33:54;;;;;;;6.60;4.30;;;27.30;96.00;;;;;;4881943;29;20094;-86
2022/07/24 08:36:20;;;;;;;6.00;3.92;;;27.30;96.80;;;;;;4895576;29;20138;-82
2022/07/24 08:38:47;;;;;;;4.53;4.10;;;27.40;97.40;;;;;;4866517;29;20117;-83
2022/07/24 08:41:13;;;;;;;6.45;3.90;;;27.30;92.30;;;;;;4863519;29;20629;-80
2022/07/24 08:43:39;;;;;;;5.80;4.93;;;26.80;96.10;;;;;;4863513;28;20039;-83
2022/07/24 08:46:09;;;;;;;18.02;7.57;;;26.90;96.80;;;;;;4927918;28;20082;-80
2022/07/24 08:48:40;;;;;;;5.57;3.45;;;27.10;98.00;;;;;;4923945;29;20047;-80
2022/07/24 08:51:06;;;;;;;5.75;4.03;;;27.20;97.00;;;;;;4919792;28;20043;-81
2022/07/24 08:53:32;;;;;;;6.35;4.60;;;27.20;97.30;;;;;;4902878;28;20830;-82
2022/07/24 08:55:59;;;;;;;5.25;4.18;;;27.10;97.50;;;;;;4899758;29;20134;-81
2022/07/24 08:58:25;;;;;;;4.47;3.60;;;27.30;97.10;;;;;;4883977;29;20118;-81
2022/07/24 09:00:51;;;;;;;8.55;6.13;;;27.30;99.30;;;;;;4898941;28;20051;-80
2022/07/24 09:03:17;;;;;;;5.22;3.78;;;27.60;97.90;;;;;;4888446;28;20051;-81
2022/07/24 09:06:14;;;;;;;10.65;9.55;;;28.10;95.90;;;;;;4870440;29;20835;-81
2022/07/24 09:09:01;;;;;;;4.93;2.90;;;28.50;86.10;;;;;;4916771;29;20070;-81
2022/07/24 09:11:29;;;;;;;4.15;2.38;;;28.90;92.30;;;;;;4917551;29;20050;-80
2022/07/24 09:16:47;;;;;;;4.18;2.22;;;28.90;71.90;;;;;;4936104;28;20081;-80
2022/07/24 09:19:17;;;;;;;3.00;2.40;;;28.60;75.40;;;;;;4874046;29;20055;-81
2022/07/24 09:21:44;;;;;;;3.03;2.40;;;28.70;74.90;;;;;;4899468;29;20051;-80
2022/07/24 09:24:16;;;;;;;3.97;1.98;;;28.70;71.70;;;;;;4903828;29;20309;-81
2022/07/24 09:26:56;;;;;;;3.00;1.98;;;28.50;68.20;;;;;;4901524;28;20046;-80
2022/07/24 09:29:25;;;;;;;4.05;2.50;;;28.90;72.70;;;;;;4897098;29;20150;-81
2022/07/24 09:31:55;;;;;;;4.20;2.83;;;29.20;69.10;;;;;;4893185;29;20052;-82
2022/07/24 09:34:22;;;;;;;4.07;2.45;;;29.10;65.90;;;;;;4880828;28;20063;-82
2022/07/24 09:37:04;;;;;;;3.83;2.30;;;29.30;64.20;;;;;;4883464;28;20501;-82
2022/07/24 09:39:33;;;;;;;5.22;2.30;;;29.30;66.30;;;;;;4911584;29;20047;-82
2022/07/24 09:42:00;;;;;;;3.17;2.20;;;29.50;73.60;;;;;;4927232;29;20213;-83
2022/07/24 09:44:29;;;;;;;5.15;2.83;;;29.60;68.70;;;;;;4899777;28;20053;-83
2022/07/24 09:47:04;;;;;;;4.57;2.08;;;29.70;66.40;;;;;;4901413;29;20046;-82
2022/07/24 09:49:31;;;;;;;3.88;2.75;;;29.40;62.40;;;;;;4898307;28;20054;-83
2022/07/24 09:52:17;;;;;;;4.28;2.63;;;29.70;62.50;;;;;;4881387;29;20054;-82
2022/07/24 09:54:50;;;;;;;5.45;3.15;;;29.50;56.80;;;;;;4893272;29;20051;-84
2022/07/24 09:57:25;;;;;;;3.53;2.10;;;29.70;58.50;;;;;;4944341;28;20054;-83
2022/07/24 09:59:57;;;;;;;3.63;2.67;;;29.90;58.00;;;;;;4895762;29;20134;-82
2022/07/24 10:02:32;;;;;;;2.90;2.28;;;30.20;57.90;;;;;;4922330;28;20184;-83
2022/07/24 10:05:00;;;;;;;5.22;3.15;;;30.50;59.60;;;;;;4880768;28;20043;-82
2022/07/24 10:07:28;;;;;;;4.63;2.45;;;30.80;59.60;;;;;;4892841;29;20059;-82
2022/07/24 10:09:59;;;;;;;4.80;1.92;;;30.40;58.10;;;;;;4909278;28;20057;-83
2022/07/24 10:12:29;;;;;;;4.75;2.58;;;29.90;57.40;;;;;;4895582;29;20460;-84
2022/07/24 10:14:57;;;;;;;2.93;2.33;;;30.30;57.50;;;;;;4928124;28;20051;-82
2022/07/24 10:18:02;;;;;;;2.55;1.95;;;30.50;56.20;;;;;;5119041;27;1371672;-85
2022/07/24 10:20:40;;;;;;;5.03;2.15;;;30.50;56.20;;;;;;5079525;27;20054;-85
2022/07/24 10:23:07;;;;;;;3.55;2.55;;;30.50;56.80;;;;;;5087856;27;20063;-88
2022/07/24 10:26:04;;;;;;;3.80;2.55;;;30.50;56.50;;;;;;5068444;27;20038;-84
2022/07/24 10:28:43;;;;;;;4.03;3.22;;;30.70;53.50;;;;;;5126853;27;20042;-82
2022/07/24 10:31:12;;;;;;;5.65;4.03;;;30.70;53.80;;;;;;5105621;27;20042;-84
2022/07/24 10:33:40;;;;;;;2.88;2.25;;;31.00;54.10;;;;;;5108312;27;20170;-85
2022/07/24 10:36:30;;;;;;;2.80;2.30;;;31.20;52.90;;;;;;5122306;27;20039;-85
2022/07/24 10:39:46;;;;;;;3.08;2.13;;;31.40;53.00;;;;;;5128237;27;20137;-84
2022/07/24 10:42:13;;;;;;;3.70;2.20;;;31.50;53.00;;;;;;5129523;27;20035;-86
2022/07/24 10:44:44;;;;;;;3.13;2.40;;;31.90;54.10;;;;;;5122806;27;20051;-86
2022/07/24 10:47:13;;;;;;;3.90;2.35;;;31.90;52.90;;;;;;5093097;27;20042;-84
2022/07/24 10:49:49;;;;;;;3.20;2.22;;;32.20;53.50;;;;;;5106919;27;20055;-89
2022/07/24 10:52:30;;;;;;;3.22;2.30;;;32.10;51.00;;;;;;5123377;27;20155;-93
2022/07/24 10:55:21;;;;;;;4.00;2.22;;;32.20;52.30;;;;;;5106480;27;20043;-87
2022/07/24 10:57:52;;;;;;;2.92;2.13;;;31.90;51.00;;;;;;5133912;27;20034;-87
2022/07/24 11:00:30;;;;;;;4.22;3.05;;;31.60;51.70;;;;;;5097081;27;20086;-86
2022/07/24 11:03:03;;;;;;;3.88;2.33;;;31.70;52.30;;;;;;5094062;27;20046;-88
2022/07/24 11:05:38;;;;;;;2.47;2.00;;;32.10;50.70;;;;;;5092812;27;20042;-87
2022/07/24 11:08:29;;;;;;;2.72;1.90;;;32.60;50.00;;;;;;5125632;27;20039;-85
2022/07/24 11:11:19;;;;;;;3.83;2.10;;;31.90;50.50;;;;;;5121558;27;20034;-84
2022/07/24 11:13:53;;;;;;;3.92;3.22;;;32.20;50.30;;;;;;5108053;27;20042;-83
2022/07/24 11:16:21;;;;;;;3.42;2.95;;;32.10;50.40;;;;;;5110570;27;20061;-85
2022/07/24 11:18:55;;;;;;;3.08;2.22;;;32.30;49.70;;;;;;5145996;27;20042;-87
2022/07/24 11:21:27;;;;;;;2.85;2.10;;;32.00;50.40;;;;;;5127912;27;20081;-84
2022/07/24 11:24:19;;;;;;;4.50;2.97;;;32.10;49.40;;;;;;5100021;27;20153;-84
2022/07/24 11:26:51;;;;;;;3.03;2.35;;;32.10;47.80;;;;;;5090614;27;20070;-86
2022/07/24 11:29:23;;;;;;;4.57;3.63;;;31.90;48.90;;;;;;5075190;27;20492;-85
2022/07/24 11:31:57;;;;;;;4.35;2.80;;;31.90;49.30;;;;;;5095697;27;20585;-86
2022/07/24 11:34:24;;;;;;;4.40;2.53;;;31.90;48.30;;;;;;5107500;27;20042;-84
2022/07/24 11:36:53;;;;;;;3.55;2.88;;;31.50;49.00;;;;;;5109581;27;20066;-85
2022/07/24 11:39:25;;;;;;;4.13;2.17;;;31.90;49.10;;;;;;5096589;27;20081;-85
2022/07/24 11:41:54;;;;;;;2.38;2.10;;;32.40;49.40;;;;;;5102346;27;20039;-85
2022/07/24 11:44:26;;;;;;;4.50;3.72;;;32.30;48.90;;;;;;5119415;27;20043;-85
2022/07/24 11:46:53;;;;;;;4.15;2.40;;;32.70;48.60;;;;;;5111912;27;20077;-85
2022/07/24 11:49:20;;;;;;;4.10;2.50;;;32.40;48.40;;;;;;5094948;27;20078;-83
2022/07/24 11:51:48;;;;;;;4.43;2.95;;;32.30;48.20;;;;;;5080112;27;20054;-83
2022/07/24 11:54:27;;;;;;;3.92;2.78;;;32.50;48.30;;;;;;5095209;27;20072;-84
2022/07/24 11:56:55;;;;;;;3.25;2.10;;;32.50;48.20;;;;;;5073336;27;20043;-83
2022/07/24 11:59:25;;;;;;;3.63;2.42;;;32.40;48.20;;;;;;5071054;27;20042;-84
2022/07/24 12:02:04;;;;;;;3.45;1.90;;;33.00;48.10;;;;;;5071007;27;20045;-85
2022/07/24 12:04:31;;;;;;;2.60;2.17;;;33.10;48.30;;;;;;5076621;27;20126;-86
2022/07/24 12:06:58;;;;;;;4.25;2.15;;;32.80;50.10;;;;;;5089891;27;20085;-85
2022/07/24 12:09:24;;;;;;;4.15;2.15;;;32.80;49.20;;;;;;5062008;27;20131;-84
2022/07/24 12:11:51;;;;;;;3.25;2.33;;;33.10;47.90;;;;;;5102787;27;20057;-85
2022/07/24 12:14:19;;;;;;;4.93;2.00;;;33.10;46.80;;;;;;5076708;27;20043;-84
2022/07/24 12:16:53;;;;;;;3.78;2.20;;;33.30;46.00;;;;;;5054206;27;20058;-83
2022/07/24 12:19:22;;;;;;;5.40;2.15;;;33.30;46.10;;;;;;5086022;27;20050;-82
2022/07/24 12:21:51;;;;;;;3.47;2.50;;;32.80;46.80;;;;;;5060052;27;20045;-84
2022/07/24 12:24:18;;;;;;;2.97;2.15;;;32.90;46.50;;;;;;5089478;27;20043;-85
2022/07/24 12:26:58;;;;;;;3.53;2.35;;;32.80;46.10;;;;;;5076757;27;20148;-84
2022/07/24 12:29:27;;;;;;;3.03;2.20;;;32.70;47.50;;;;;;5055605;27;20086;-86
2022/07/24 12:32:17;;;;;;;4.68;2.60;;;32.80;47.00;;;;;;5100367;27;20046;-84
2022/07/24 12:34:45;;;;;;;5.43;3.10;;;32.50;45.40;;;;;;5094471;27;20159;-85
2022/07/24 12:37:20;;;;;;;3.45;2.13;;;32.40;47.80;;;;;;5108309;27;20046;-85
2022/07/24 12:39:53;;;;;;;3.72;2.67;;;32.70;47.70;;;;;;5091029;27;20737;-85
2022/07/24 12:42:30;;;;;;;4.75;3.20;;;32.80;46.00;;;;;;5073502;27;20143;-87
2022/07/24 12:45:06;;;;;;;5.10;2.50;;;32.80;44.20;;;;;;5052782;27;20049;-84
2022/07/24 12:47:32;;;;;;;3.28;1.95;;;33.00;45.00;;;;;;5088071;27;20054;-83
2022/07/24 12:50:11;;;;;;;3.33;2.10;;;32.90;45.10;;;;;;5070344;27;20541;-83
2022/07/24 12:52:38;;;;;;;4.75;3.65;;;33.10;44.00;;;;;;5090513;27;20038;-85